sensor_id;sensor_type;location;lat;lon;timestamp;P1;durP1;ratioP1;P2;durP2;ratioP2
17604;SDS011;8921;50.964;6.800;2022-07-04T00:00:51;5.83;;;1.67;;
17604;SDS011;8921;50.964;6.800;2022-07-04T00:03:19;8.00;;;2.00;;
17604;SDS011;8921;50.964;6.800;2022-07-04T00:05:48;12.93;;;2.00;;
17604;SDS011;8921;50.964;6.800;2022-07-04T00:08:16;4.23;;;1.90;;
17604;SDS011;8921;50.964;6.800;2022-07-04T00:10:44;6.37;;;2.00;;
17604;SDS011;8921;50.964;6.800;2022-07-04T00:13:13;3.47;;;1.60;;
17604;SDS011;8921;50.964;6.800;2022-07-04T00:15:41;4.00;;;1.80;;
17604;SDS011;8921;50.964;6.800;2022-07-04T00:18:09;7.13;;;1.90;;
17604;SDS011;8921;50.964;6.800;2022-07-04T00:20:37;6.13;;;2.17;;
17604;SDS011;8921;50.964;6.800;2022-07-04T00:23:06;5.20;;;2.07;;
17604;SDS011;8921;50.964;6.800;2022-07-04T00:25:34;4.33;;;2.03;;
17604;SDS011;8921;50.964;6.800;2022-07-04T00:28:02;9.40;;;2.87;;
17604;SDS011;8921;50.964;6.800;2022-07-04T00:30:31;5.13;;;2.00;;
17604;SDS011;8921;50.964;6.800;2022-07-04T00:32:59;6.23;;;1.97;;
17604;SDS011;8921;50.964;6.800;2022-07-04T00:35:27;4.50;;;2.07;;
17604;SDS011;8921;50.964;6.800;2022-07-04T00:37:56;4.60;;;1.93;;
17604;SDS011;8921;50.964;6.800;2022-07-04T00:40:24;7.33;;;2.17;;
17604;SDS011;8921;50.964;6.800;2022-07-04T00:42:52;9.93;;;2.17;;
17604;SDS011;8921;50.964;6.800;2022-07-04T00:45:20;6.20;;;2.30;;
17604;SDS011;8921;50.964;6.800;2022-07-04T00:47:49;9.07;;;2.07;;
17604;SDS011;8921;50.964;6.800;2022-07-04T00:50:17;8.60;;;2.10;;
17604;SDS011;8921;50.964;6.800;2022-07-04T00:52:45;6.63;;;2.23;;
17604;SDS011;8921;50.964;6.800;2022-07-04T00:55:14;7.03;;;2.20;;
17604;SDS011;8921;50.964;6.800;2022-07-04T00:57:42;5.37;;;2.27;;
17604;SDS011;8921;50.964;6.800;2022-07-04T01:00:10;5.00;;;2.27;;
17604;SDS011;8921;50.964;6.800;2022-07-04T01:02:39;5.53;;;2.00;;
17604;SDS011;8921;50.964;6.800;2022-07-04T01:05:07;7.40;;;1.90;;
17604;SDS011;8921;50.964;6.800;2022-07-04T01:07:35;4.77;;;2.10;;
17604;SDS011;8921;50.964;6.800;2022-07-04T01:10:04;4.33;;;1.67;;
17604;SDS011;8921;50.964;6.800;2022-07-04T01:12:32;5.53;;;2.33;;
17604;SDS011;8921;50.964;6.800;2022-07-04T01:15:00;5.00;;;2.23;;
17604;SDS011;8921;50.964;6.800;2022-07-04T01:17:29;5.60;;;1.60;;
17604;SDS011;8921;50.964;6.800;2022-07-04T01:19:57;10.77;;;2.53;;
17604;SDS011;8921;50.964;6.800;2022-07-04T01:22:25;4.37;;;1.83;;
17604;SDS011;8921;50.964;6.800;2022-07-04T01:24:53;6.53;;;2.10;;
17604;SDS011;8921;50.964;6.800;2022-07-04T01:27:22;3.70;;;1.80;;
17604;SDS011;8921;50.964;6.800;2022-07-04T01:29:50;3.53;;;1.50;;
17604;SDS011;8921;50.964;6.800;2022-07-04T01:32:18;4.10;;;1.90;;
17604;SDS011;8921;50.964;6.800;2022-07-04T01:34:46;4.60;;;2.43;;
17604;SDS011;8921;50.964;6.800;2022-07-04T01:37:15;3.93;;;1.93;;
17604;SDS011;8921;50.964;6.800;2022-07-04T01:39:43;4.17;;;1.63;;
17604;SDS011;8921;50.964;6.800;2022-07-04T01:42:11;5.67;;;2.20;;
17604;SDS011;8921;50.964;6.800;2022-07-04T01:44:40;5.13;;;1.90;;
17604;SDS011;8921;50.964;6.800;2022-07-04T01:47:08;7.13;;;1.80;;
17604;SDS011;8921;50.964;6.800;2022-07-04T01:49:36;3.93;;;1.63;;
17604;SDS011;8921;50.964;6.800;2022-07-04T01:52:05;4.47;;;1.60;;
17604;SDS011;8921;50.964;6.800;2022-07-04T01:54:33;4.70;;;1.80;;
17604;SDS011;8921;50.964;6.800;2022-07-04T01:57:01;6.63;;;2.07;;
17604;SDS011;8921;50.964;6.800;2022-07-04T01:59:29;6.70;;;2.10;;
17604;SDS011;8921;50.964;6.800;2022-07-04T02:02:16;5.00;;;1.70;;
17604;SDS011;8921;50.964;6.800;2022-07-04T02:04:44;6.80;;;2.23;;
17604;SDS011;8921;50.964;6.800;2022-07-04T02:07:13;7.50;;;1.70;;
17604;SDS011;8921;50.964;6.800;2022-07-04T02:09:41;3.87;;;1.60;;
17604;SDS011;8921;50.964;6.800;2022-07-04T02:12:09;4.60;;;1.77;;
17604;SDS011;8921;50.964;6.800;2022-07-04T02:14:56;5.90;;;1.90;;
17604;SDS011;8921;50.964;6.800;2022-07-04T02:17:25;3.90;;;2.27;;
17604;SDS011;8921;50.964;6.800;2022-07-04T02:19:53;5.20;;;2.03;;
17604;SDS011;8921;50.964;6.800;2022-07-04T02:22:21;4.27;;;1.80;;
17604;SDS011;8921;50.964;6.800;2022-07-04T02:24:49;5.23;;;1.80;;
17604;SDS011;8921;50.964;6.800;2022-07-04T02:27:18;7.30;;;2.27;;
17604;SDS011;8921;50.964;6.800;2022-07-04T02:29:46;3.37;;;1.60;;
17604;SDS011;8921;50.964;6.800;2022-07-04T02:32:14;9.03;;;1.90;;
17604;SDS011;8921;50.964;6.800;2022-07-04T02:34:42;5.17;;;1.83;;
17604;SDS011;8921;50.964;6.800;2022-07-04T02:37:11;5.63;;;2.30;;
17604;SDS011;8921;50.964;6.800;2022-07-04T02:39:39;5.83;;;2.30;;
17604;SDS011;8921;50.964;6.800;2022-07-04T02:42:07;7.70;;;2.10;;
17604;SDS011;8921;50.964;6.800;2022-07-04T02:44:36;4.83;;;1.87;;
17604;SDS011;8921;50.964;6.800;2022-07-04T02:47:04;4.70;;;1.80;;
17604;SDS011;8921;50.964;6.800;2022-07-04T02:49:32;4.67;;;1.67;;
17604;SDS011;8921;50.964;6.800;2022-07-04T02:52:01;8.07;;;2.70;;
17604;SDS011;8921;50.964;6.800;2022-07-04T02:54:29;4.77;;;1.80;;
17604;SDS011;8921;50.964;6.800;2022-07-04T02:56:57;4.13;;;1.80;;
17604;SDS011;8921;50.964;6.800;2022-07-04T02:59:25;8.37;;;2.63;;
17604;SDS011;8921;50.964;6.800;2022-07-04T03:01:54;5.83;;;2.30;;
17604;SDS011;8921;50.964;6.800;2022-07-04T03:04:22;6.90;;;2.33;;
17604;SDS011;8921;50.964;6.800;2022-07-04T03:06:50;4.60;;;1.87;;
17604;SDS011;8921;50.964;6.800;2022-07-04T03:09:19;4.90;;;2.47;;
17604;SDS011;8921;50.964;6.800;2022-07-04T03:11:47;5.10;;;1.90;;
17604;SDS011;8921;50.964;6.800;2022-07-04T03:14:15;7.47;;;2.27;;
17604;SDS011;8921;50.964;6.800;2022-07-04T03:16:44;4.80;;;2.33;;
17604;SDS011;8921;50.964;6.800;2022-07-04T03:19:12;6.23;;;2.30;;
17604;SDS011;8921;50.964;6.800;2022-07-04T03:21:40;5.43;;;1.90;;
17604;SDS011;8921;50.964;6.800;2022-07-04T03:24:08;4.80;;;2.10;;
17604;SDS011;8921;50.964;6.800;2022-07-04T03:26:37;8.97;;;2.10;;
17604;SDS011;8921;50.964;6.800;2022-07-04T03:29:05;3.83;;;2.13;;
17604;SDS011;8921;50.964;6.800;2022-07-04T03:31:33;10.30;;;2.37;;
17604;SDS011;8921;50.964;6.800;2022-07-04T03:34:02;7.40;;;2.37;;
17604;SDS011;8921;50.964;6.800;2022-07-04T03:36:30;10.73;;;2.07;;
17604;SDS011;8921;50.964;6.800;2022-07-04T03:38:58;11.23;;;2.80;;
17604;SDS011;8921;50.964;6.800;2022-07-04T03:41:26;6.60;;;2.17;;
17604;SDS011;8921;50.964;6.800;2022-07-04T03:43:55;8.83;;;2.20;;
17604;SDS011;8921;50.964;6.800;2022-07-04T03:46:23;7.33;;;2.90;;
17604;SDS011;8921;50.964;6.800;2022-07-04T03:48:51;6.07;;;2.23;;
17604;SDS011;8921;50.964;6.800;2022-07-04T03:51:20;7.97;;;2.50;;
17604;SDS011;8921;50.964;6.800;2022-07-04T03:53:48;4.80;;;2.43;;
17604;SDS011;8921;50.964;6.800;2022-07-04T03:56:16;15.37;;;2.57;;
17604;SDS011;8921;50.964;6.800;2022-07-04T03:58:45;9.13;;;2.63;;
17604;SDS011;8921;50.964;6.800;2022-07-04T04:01:16;4.80;;;2.33;;
17604;SDS011;8921;50.964;6.800;2022-07-04T04:03:44;5.43;;;3.20;;
17604;SDS011;8921;50.964;6.800;2022-07-04T04:06:31;4.60;;;2.43;;
17604;SDS011;8921;50.964;6.800;2022-07-04T04:08:59;5.33;;;2.57;;
17604;SDS011;8921;50.964;6.800;2022-07-04T04:11:28;4.33;;;2.33;;
17604;SDS011;8921;50.964;6.800;2022-07-04T04:13:56;5.30;;;2.60;;
17604;SDS011;8921;50.964;6.800;2022-07-04T04:16:24;7.83;;;2.60;;
17604;SDS011;8921;50.964;6.800;2022-07-04T04:18:52;7.10;;;2.60;;
17604;SDS011;8921;50.964;6.800;2022-07-04T04:21:21;4.60;;;2.40;;
17604;SDS011;8921;50.964;6.800;2022-07-04T04:23:49;5.20;;;2.20;;
17604;SDS011;8921;50.964;6.800;2022-07-04T04:26:17;6.83;;;2.43;;
17604;SDS011;8921;50.964;6.800;2022-07-04T04:28:45;4.60;;;2.30;;
17604;SDS011;8921;50.964;6.800;2022-07-04T04:31:14;4.47;;;1.90;;
17604;SDS011;8921;50.964;6.800;2022-07-04T04:33:42;5.00;;;2.70;;
17604;SDS011;8921;50.964;6.800;2022-07-04T04:36:10;10.23;;;2.50;;
17604;SDS011;8921;50.964;6.800;2022-07-04T04:38:39;5.70;;;2.80;;
17604;SDS011;8921;50.964;6.800;2022-07-04T04:41:07;5.87;;;2.37;;
17604;SDS011;8921;50.964;6.800;2022-07-04T04:43:36;6.10;;;2.30;;
17604;SDS011;8921;50.964;6.800;2022-07-04T04:46:04;7.33;;;2.30;;
17604;SDS011;8921;50.964;6.800;2022-07-04T04:48:32;6.70;;;2.20;;
17604;SDS011;8921;50.964;6.800;2022-07-04T04:51:00;6.80;;;2.20;;
17604;SDS011;8921;50.964;6.800;2022-07-04T04:53:29;6.43;;;2.30;;
17604;SDS011;8921;50.964;6.800;2022-07-04T04:55:57;10.27;;;2.10;;
17604;SDS011;8921;50.964;6.800;2022-07-04T04:58:25;5.37;;;2.47;;
17604;SDS011;8921;50.964;6.800;2022-07-04T05:00:53;5.73;;;2.20;;
17604;SDS011;8921;50.964;6.800;2022-07-04T05:03:22;8.97;;;2.63;;
17604;SDS011;8921;50.964;6.800;2022-07-04T05:05:50;10.23;;;2.70;;
17604;SDS011;8921;50.964;6.800;2022-07-04T05:08:18;5.10;;;2.20;;
17604;SDS011;8921;50.964;6.800;2022-07-04T05:10:46;7.03;;;2.27;;
17604;SDS011;8921;50.964;6.800;2022-07-04T05:13:15;4.03;;;2.07;;
17604;SDS011;8921;50.964;6.800;2022-07-04T05:15:43;6.93;;;2.27;;
17604;SDS011;8921;50.964;6.800;2022-07-04T05:18:11;4.77;;;2.57;;
17604;SDS011;8921;50.964;6.800;2022-07-04T05:20:40;4.50;;;1.50;;
17604;SDS011;8921;50.964;6.800;2022-07-04T05:23:08;3.77;;;1.83;;
17604;SDS011;8921;50.964;6.800;2022-07-04T05:25:36;3.60;;;1.50;;
17604;SDS011;8921;50.964;6.800;2022-07-04T05:28:04;6.00;;;1.40;;
17604;SDS011;8921;50.964;6.800;2022-07-04T05:30:33;4.20;;;1.30;;
17604;SDS011;8921;50.964;6.800;2022-07-04T05:35:46;3.80;;;1.63;;
17604;SDS011;8921;50.964;6.800;2022-07-04T05:38:14;5.87;;;1.90;;
17604;SDS011;8921;50.964;6.800;2022-07-04T05:40:42;6.97;;;1.80;;
17604;SDS011;8921;50.964;6.800;2022-07-04T05:43:11;7.30;;;1.77;;
17604;SDS011;8921;50.964;6.800;2022-07-04T05:45:39;5.73;;;1.90;;
17604;SDS011;8921;50.964;6.800;2022-07-04T05:48:07;4.07;;;1.40;;
17604;SDS011;8921;50.964;6.800;2022-07-04T05:50:35;3.50;;;1.40;;
17604;SDS011;8921;50.964;6.800;2022-07-04T05:53:04;5.60;;;1.80;;
17604;SDS011;8921;50.964;6.800;2022-07-04T05:55:32;4.53;;;1.67;;
17604;SDS011;8921;50.964;6.800;2022-07-04T05:58:00;4.80;;;1.57;;
17604;SDS011;8921;50.964;6.800;2022-07-04T06:00:29;5.87;;;1.70;;
17604;SDS011;8921;50.964;6.800;2022-07-04T06:02:57;5.33;;;1.67;;
17604;SDS011;8921;50.964;6.800;2022-07-04T06:05:25;6.30;;;2.10;;
17604;SDS011;8921;50.964;6.800;2022-07-04T06:07:54;4.10;;;1.40;;
17604;SDS011;8921;50.964;6.800;2022-07-04T06:10:22;5.83;;;2.13;;
17604;SDS011;8921;50.964;6.800;2022-07-04T06:12:50;4.63;;;1.77;;
17604;SDS011;8921;50.964;6.800;2022-07-04T06:15:18;4.43;;;1.97;;
17604;SDS011;8921;50.964;6.800;2022-07-04T06:17:47;4.93;;;1.70;;
17604;SDS011;8921;50.964;6.800;2022-07-04T06:20:15;5.03;;;1.60;;
17604;SDS011;8921;50.964;6.800;2022-07-04T06:22:47;5.80;;;1.70;;
17604;SDS011;8921;50.964;6.800;2022-07-04T06:25:15;5.80;;;1.80;;
17604;SDS011;8921;50.964;6.800;2022-07-04T06:27:43;4.17;;;1.67;;
17604;SDS011;8921;50.964;6.800;2022-07-04T06:30:11;7.60;;;1.50;;
17604;SDS011;8921;50.964;6.800;2022-07-04T06:32:49;4.20;;;1.90;;
17604;SDS011;8921;50.964;6.800;2022-07-04T06:35:17;3.63;;;1.80;;
17604;SDS011;8921;50.964;6.800;2022-07-04T06:38:03;4.10;;;1.40;;
17604;SDS011;8921;50.964;6.800;2022-07-04T06:40:31;3.63;;;1.50;;
17604;SDS011;8921;50.964;6.800;2022-07-04T06:43:00;5.10;;;1.40;;
17604;SDS011;8921;50.964;6.800;2022-07-04T06:45:28;4.87;;;1.60;;
17604;SDS011;8921;50.964;6.800;2022-07-04T06:47:56;4.53;;;1.50;;
17604;SDS011;8921;50.964;6.800;2022-07-04T06:50:25;4.97;;;1.53;;
17604;SDS011;8921;50.964;6.800;2022-07-04T06:52:53;3.83;;;1.40;;
17604;SDS011;8921;50.964;6.800;2022-07-04T06:55:21;3.80;;;1.40;;
17604;SDS011;8921;50.964;6.800;2022-07-04T06:57:49;3.47;;;1.67;;
17604;SDS011;8921;50.964;6.800;2022-07-04T07:00:18;5.87;;;1.37;;
17604;SDS011;8921;50.964;6.800;2022-07-04T07:02:46;6.10;;;1.60;;
17604;SDS011;8921;50.964;6.800;2022-07-04T07:05:14;3.27;;;1.30;;
17604;SDS011;8921;50.964;6.800;2022-07-04T07:07:43;3.47;;;1.20;;
17604;SDS011;8921;50.964;6.800;2022-07-04T07:10:11;5.07;;;1.40;;
17604;SDS011;8921;50.964;6.800;2022-07-04T07:12:39;3.80;;;1.47;;
17604;SDS011;8921;50.964;6.800;2022-07-04T07:15:08;3.07;;;1.40;;
17604;SDS011;8921;50.964;6.800;2022-07-04T07:17:36;3.17;;;1.37;;
17604;SDS011;8921;50.964;6.800;2022-07-04T07:20:04;2.70;;;1.17;;
17604;SDS011;8921;50.964;6.800;2022-07-04T07:22:33;2.50;;;1.10;;
17604;SDS011;8921;50.964;6.800;2022-07-04T07:25:01;4.67;;;2.80;;
17604;SDS011;8921;50.964;6.800;2022-07-04T07:27:29;3.10;;;1.10;;
17604;SDS011;8921;50.964;6.800;2022-07-04T07:29:58;2.80;;;1.20;;
17604;SDS011;8921;50.964;6.800;2022-07-04T07:32:26;5.43;;;1.40;;
17604;SDS011;8921;50.964;6.800;2022-07-04T07:34:54;3.47;;;1.20;;
17604;SDS011;8921;50.964;6.800;2022-07-04T07:37:22;3.20;;;1.10;;
17604;SDS011;8921;50.964;6.800;2022-07-04T07:39:51;4.00;;;1.30;;
17604;SDS011;8921;50.964;6.800;2022-07-04T07:42:19;3.10;;;1.20;;
17604;SDS011;8921;50.964;6.800;2022-07-04T07:44:47;3.57;;;1.20;;
17604;SDS011;8921;50.964;6.800;2022-07-04T07:47:15;4.80;;;1.37;;
17604;SDS011;8921;50.964;6.800;2022-07-04T07:49:44;3.23;;;1.60;;
17604;SDS011;8921;50.964;6.800;2022-07-04T07:52:12;5.90;;;1.23;;
17604;SDS011;8921;50.964;6.800;2022-07-04T07:54:40;3.83;;;1.30;;
17604;SDS011;8921;50.964;6.800;2022-07-04T07:57:09;2.60;;;1.00;;
17604;SDS011;8921;50.964;6.800;2022-07-04T07:59:37;2.87;;;1.07;;
17604;SDS011;8921;50.964;6.800;2022-07-04T08:02:05;3.10;;;1.10;;
17604;SDS011;8921;50.964;6.800;2022-07-04T08:04:33;3.60;;;1.17;;
17604;SDS011;8921;50.964;6.800;2022-07-04T08:07:05;4.60;;;1.83;;
17604;SDS011;8921;50.964;6.800;2022-07-04T08:09:33;3.07;;;1.10;;
17604;SDS011;8921;50.964;6.800;2022-07-04T08:12:02;2.90;;;1.00;;
17604;SDS011;8921;50.964;6.800;2022-07-04T08:14:30;4.40;;;1.30;;
17604;SDS011;8921;50.964;6.800;2022-07-04T08:16:58;2.93;;;1.00;;
17604;SDS011;8921;50.964;6.800;2022-07-04T08:19:26;2.80;;;1.17;;
17604;SDS011;8921;50.964;6.800;2022-07-04T08:21:54;3.53;;;1.10;;
17604;SDS011;8921;50.964;6.800;2022-07-04T08:24:23;3.27;;;1.20;;
17604;SDS011;8921;50.964;6.800;2022-07-04T08:26:51;3.50;;;1.10;;
17604;SDS011;8921;50.964;6.800;2022-07-04T08:29:19;2.50;;;0.90;;
17604;SDS011;8921;50.964;6.800;2022-07-04T08:31:48;5.00;;;1.07;;
17604;SDS011;8921;50.964;6.800;2022-07-04T08:34:16;4.93;;;1.53;;
17604;SDS011;8921;50.964;6.800;2022-07-04T08:36:44;3.07;;;1.10;;
17604;SDS011;8921;50.964;6.800;2022-07-04T08:39:12;4.27;;;1.20;;
17604;SDS011;8921;50.964;6.800;2022-07-04T08:41:41;3.60;;;1.13;;
17604;SDS011;8921;50.964;6.800;2022-07-04T08:44:09;2.90;;;1.00;;
17604;SDS011;8921;50.964;6.800;2022-07-04T08:46:38;2.80;;;1.07;;
17604;SDS011;8921;50.964;6.800;2022-07-04T08:49:09;2.97;;;1.20;;
17604;SDS011;8921;50.964;6.800;2022-07-04T08:54:17;3.27;;;1.10;;
17604;SDS011;8921;50.964;6.800;2022-07-04T08:57:04;11.43;;;1.40;;
17604;SDS011;8921;50.964;6.800;2022-07-04T08:59:51;4.90;;;1.27;;
17604;SDS011;8921;50.964;6.800;2022-07-04T09:02:19;2.90;;;1.20;;
17604;SDS011;8921;50.964;6.800;2022-07-04T09:04:49;2.67;;;1.10;;
17604;SDS011;8921;50.964;6.800;2022-07-04T09:09:44;3.90;;;1.50;;
17604;SDS011;8921;50.964;6.800;2022-07-04T09:12:12;3.43;;;1.20;;
17604;SDS011;8921;50.964;6.800;2022-07-04T09:14:41;5.10;;;1.30;;
17604;SDS011;8921;50.964;6.800;2022-07-04T09:17:09;2.83;;;1.00;;
17604;SDS011;8921;50.964;6.800;2022-07-04T09:19:37;2.70;;;1.10;;
17604;SDS011;8921;50.964;6.800;2022-07-04T09:22:08;3.00;;;1.10;;
17604;SDS011;8921;50.964;6.800;2022-07-04T09:24:44;4.47;;;1.30;;
17604;SDS011;8921;50.964;6.800;2022-07-04T09:30:01;3.10;;;1.13;;
17604;SDS011;8921;50.964;6.800;2022-07-04T09:32:39;3.90;;;1.20;;
17604;SDS011;8921;50.964;6.800;2022-07-04T09:35:10;2.80;;;1.00;;
17604;SDS011;8921;50.964;6.800;2022-07-04T09:37:44;4.47;;;1.30;;
17604;SDS011;8921;50.964;6.800;2022-07-04T09:42:38;6.50;;;1.47;;
17604;SDS011;8921;50.964;6.800;2022-07-04T09:45:05;6.00;;;1.30;;
17604;SDS011;8921;50.964;6.800;2022-07-04T09:47:32;3.80;;;1.30;;
17604;SDS011;8921;50.964;6.800;2022-07-04T09:50:02;4.30;;;1.10;;
17604;SDS011;8921;50.964;6.800;2022-07-04T09:52:53;3.63;;;1.27;;
17604;SDS011;8921;50.964;6.800;2022-07-04T09:55:33;6.67;;;2.17;;
17604;SDS011;8921;50.964;6.800;2022-07-04T09:58:01;3.00;;;1.10;;
17604;SDS011;8921;50.964;6.800;2022-07-04T10:00:30;4.50;;;1.40;;
17604;SDS011;8921;50.964;6.800;2022-07-04T10:05:47;3.10;;;1.30;;
17604;SDS011;8921;50.964;6.800;2022-07-04T10:08:15;4.90;;;1.43;;
17604;SDS011;8921;50.964;6.800;2022-07-04T10:10:43;3.50;;;1.20;;
17604;SDS011;8921;50.964;6.800;2022-07-04T10:13:12;3.57;;;1.27;;
17604;SDS011;8921;50.964;6.800;2022-07-04T10:15:40;4.10;;;1.30;;
17604;SDS011;8921;50.964;6.800;2022-07-04T10:18:08;4.60;;;1.40;;
17604;SDS011;8921;50.964;6.800;2022-07-04T10:20:36;3.20;;;1.20;;
17604;SDS011;8921;50.964;6.800;2022-07-04T10:23:04;2.87;;;1.10;;
17604;SDS011;8921;50.964;6.800;2022-07-04T10:25:33;4.40;;;1.33;;
17604;SDS011;8921;50.964;6.800;2022-07-04T10:28:01;3.33;;;1.37;;
17604;SDS011;8921;50.964;6.800;2022-07-04T10:30:30;4.10;;;1.13;;
17604;SDS011;8921;50.964;6.800;2022-07-04T10:32:58;3.20;;;1.20;;
17604;SDS011;8921;50.964;6.800;2022-07-04T10:38:19;4.10;;;1.20;;
17604;SDS011;8921;50.964;6.800;2022-07-04T10:40:51;3.87;;;1.20;;
17604;SDS011;8921;50.964;6.800;2022-07-04T10:48:32;3.13;;;1.43;;
17604;SDS011;8921;50.964;6.800;2022-07-04T10:51:03;3.70;;;1.33;;
17604;SDS011;8921;50.964;6.800;2022-07-04T10:53:31;3.27;;;1.23;;
17604;SDS011;8921;50.964;6.800;2022-07-04T10:56:31;3.33;;;1.23;;
17604;SDS011;8921;50.964;6.800;2022-07-04T10:58:43;5.60;;;1.43;;
17604;SDS011;8921;50.964;6.800;2022-07-04T11:01:12;3.77;;;1.23;;
17604;SDS011;8921;50.964;6.800;2022-07-04T11:03:46;3.07;;;1.30;;
17604;SDS011;8921;50.964;6.800;2022-07-04T11:12:00;6.93;;;1.73;;
17604;SDS011;8921;50.964;6.800;2022-07-04T11:17:05;6.73;;;1.60;;
17604;SDS011;8921;50.964;6.800;2022-07-04T11:19:33;3.80;;;1.67;;
17604;SDS011;8921;50.964;6.800;2022-07-04T11:22:01;6.93;;;1.47;;
17604;SDS011;8921;50.964;6.800;2022-07-04T11:24:29;9.23;;;1.60;;
17604;SDS011;8921;50.964;6.800;2022-07-04T11:26:57;6.60;;;1.73;;
17604;SDS011;8921;50.964;6.800;2022-07-04T11:29:26;7.53;;;1.47;;
17604;SDS011;8921;50.964;6.800;2022-07-04T11:31:54;5.37;;;1.40;;
17604;SDS011;8921;50.964;6.800;2022-07-04T11:34:23;8.17;;;1.43;;
17604;SDS011;8921;50.964;6.800;2022-07-04T11:36:51;3.63;;;1.43;;
17604;SDS011;8921;50.964;6.800;2022-07-04T11:39:19;4.93;;;1.60;;
17604;SDS011;8921;50.964;6.800;2022-07-04T11:41:48;4.67;;;1.67;;
17604;SDS011;8921;50.964;6.800;2022-07-04T11:44:35;3.80;;;1.27;;
17604;SDS011;8921;50.964;6.800;2022-07-04T11:47:22;5.07;;;1.73;;
17604;SDS011;8921;50.964;6.800;2022-07-04T11:49:50;6.00;;;1.40;;
17604;SDS011;8921;50.964;6.800;2022-07-04T11:52:24;6.93;;;1.63;;
17604;SDS011;8921;50.964;6.800;2022-07-04T11:54:52;3.60;;;1.20;;
17604;SDS011;8921;50.964;6.800;2022-07-04T11:59:51;4.40;;;1.60;;
17604;SDS011;8921;50.964;6.800;2022-07-04T12:02:19;6.10;;;1.47;;
17604;SDS011;8921;50.964;6.800;2022-07-04T12:04:47;9.43;;;1.20;;
17604;SDS011;8921;50.964;6.800;2022-07-04T12:07:16;3.33;;;1.30;;
17604;SDS011;8921;50.964;6.800;2022-07-04T12:09:44;3.53;;;1.20;;
17604;SDS011;8921;50.964;6.800;2022-07-04T12:12:12;3.53;;;1.43;;
17604;SDS011;8921;50.964;6.800;2022-07-04T12:14:56;3.33;;;1.53;;
17604;SDS011;8921;50.964;6.800;2022-07-04T12:20:14;4.23;;;1.53;;
17604;SDS011;8921;50.964;6.800;2022-07-04T12:22:42;4.30;;;1.30;;
17604;SDS011;8921;50.964;6.800;2022-07-04T12:27:57;3.87;;;1.40;;
17604;SDS011;8921;50.964;6.800;2022-07-04T12:30:24;3.70;;;1.90;;
17604;SDS011;8921;50.964;6.800;2022-07-04T12:32:59;4.53;;;1.47;;
17604;SDS011;8921;50.964;6.800;2022-07-04T12:43:18;11.10;;;1.90;;
17604;SDS011;8921;50.964;6.800;2022-07-04T12:45:47;3.73;;;1.30;;
17604;SDS011;8921;50.964;6.800;2022-07-04T12:48:21;4.07;;;1.40;;
17604;SDS011;8921;50.964;6.800;2022-07-04T12:50:45;6.30;;;1.30;;
17604;SDS011;8921;50.964;6.800;2022-07-04T12:53:14;3.23;;;1.10;;
17604;SDS011;8921;50.964;6.800;2022-07-04T12:55:45;2.87;;;1.20;;
17604;SDS011;8921;50.964;6.800;2022-07-04T12:58:13;3.50;;;1.47;;
17604;SDS011;8921;50.964;6.800;2022-07-04T13:00:41;4.33;;;1.50;;
17604;SDS011;8921;50.964;6.800;2022-07-04T13:03:10;3.10;;;1.47;;
17604;SDS011;8921;50.964;6.800;2022-07-04T13:05:38;3.30;;;1.30;;
17604;SDS011;8921;50.964;6.800;2022-07-04T13:08:06;3.13;;;1.30;;
17604;SDS011;8921;50.964;6.800;2022-07-04T13:10:34;3.70;;;1.73;;
17604;SDS011;8921;50.964;6.800;2022-07-04T13:13:03;3.13;;;1.40;;
17604;SDS011;8921;50.964;6.800;2022-07-04T13:15:31;3.13;;;1.07;;
17604;SDS011;8921;50.964;6.800;2022-07-04T13:17:59;3.13;;;1.20;;
17604;SDS011;8921;50.964;6.800;2022-07-04T13:20:27;3.30;;;1.20;;
17604;SDS011;8921;50.964;6.800;2022-07-04T13:22:56;4.93;;;1.13;;
17604;SDS011;8921;50.964;6.800;2022-07-04T13:25:24;3.07;;;1.10;;
17604;SDS011;8921;50.964;6.800;2022-07-04T13:27:52;5.33;;;1.37;;
17604;SDS011;8921;50.964;6.800;2022-07-04T13:30:21;3.00;;;1.20;;
17604;SDS011;8921;50.964;6.800;2022-07-04T13:32:49;2.60;;;1.20;;
17604;SDS011;8921;50.964;6.800;2022-07-04T13:35:17;6.53;;;1.30;;
17604;SDS011;8921;50.964;6.800;2022-07-04T13:37:45;2.70;;;1.10;;
17604;SDS011;8921;50.964;6.800;2022-07-04T13:40:14;3.60;;;1.23;;
17604;SDS011;8921;50.964;6.800;2022-07-04T13:42:42;3.83;;;1.20;;
17604;SDS011;8921;50.964;6.800;2022-07-04T13:45:26;5.27;;;1.40;;
17604;SDS011;8921;50.964;6.800;2022-07-04T13:47:54;2.87;;;1.27;;
17604;SDS011;8921;50.964;6.800;2022-07-04T13:50:22;6.77;;;1.10;;
17604;SDS011;8921;50.964;6.800;2022-07-04T13:52:50;4.10;;;1.63;;
17604;SDS011;8921;50.964;6.800;2022-07-04T13:55:19;3.47;;;1.30;;
17604;SDS011;8921;50.964;6.800;2022-07-04T13:57:47;3.83;;;1.43;;
17604;SDS011;8921;50.964;6.800;2022-07-04T14:00:15;2.60;;;1.10;;
17604;SDS011;8921;50.964;6.800;2022-07-04T14:02:44;3.73;;;1.30;;
17604;SDS011;8921;50.964;6.800;2022-07-04T14:05:12;3.47;;;1.30;;
17604;SDS011;8921;50.964;6.800;2022-07-04T14:07:40;5.13;;;1.87;;
17604;SDS011;8921;50.964;6.800;2022-07-04T14:10:09;3.70;;;1.43;;
17604;SDS011;8921;50.964;6.800;2022-07-04T14:12:37;9.50;;;1.90;;
17604;SDS011;8921;50.964;6.800;2022-07-04T14:15:05;5.47;;;1.60;;
17604;SDS011;8921;50.964;6.800;2022-07-04T14:17:34;6.13;;;1.57;;
17604;SDS011;8921;50.964;6.800;2022-07-04T14:20:05;3.03;;;1.20;;
17604;SDS011;8921;50.964;6.800;2022-07-04T14:22:33;4.00;;;1.20;;
17604;SDS011;8921;50.964;6.800;2022-07-04T14:25:05;3.60;;;1.50;;
17604;SDS011;8921;50.964;6.800;2022-07-04T14:27:33;4.83;;;1.50;;
17604;SDS011;8921;50.964;6.800;2022-07-04T14:30:01;3.97;;;1.40;;
17604;SDS011;8921;50.964;6.800;2022-07-04T14:32:29;5.23;;;1.50;;
17604;SDS011;8921;50.964;6.800;2022-07-04T14:34:57;5.00;;;1.33;;
17604;SDS011;8921;50.964;6.800;2022-07-04T14:37:26;4.03;;;1.40;;
17604;SDS011;8921;50.964;6.800;2022-07-04T14:39:54;3.70;;;1.47;;
17604;SDS011;8921;50.964;6.800;2022-07-04T14:42:22;3.93;;;1.37;;
17604;SDS011;8921;50.964;6.800;2022-07-04T14:44:51;3.90;;;1.77;;
17604;SDS011;8921;50.964;6.800;2022-07-04T14:47:19;5.03;;;1.23;;
17604;SDS011;8921;50.964;6.800;2022-07-04T14:49:47;4.07;;;1.30;;
17604;SDS011;8921;50.964;6.800;2022-07-04T14:52:15;4.83;;;1.70;;
17604;SDS011;8921;50.964;6.800;2022-07-04T14:54:44;3.00;;;1.20;;
17604;SDS011;8921;50.964;6.800;2022-07-04T14:57:12;5.13;;;1.47;;
17604;SDS011;8921;50.964;6.800;2022-07-04T14:59:40;5.23;;;1.50;;
17604;SDS011;8921;50.964;6.800;2022-07-04T15:02:08;3.53;;;1.50;;
17604;SDS011;8921;50.964;6.800;2022-07-04T15:04:37;5.47;;;1.73;;
17604;SDS011;8921;50.964;6.800;2022-07-04T15:07:05;4.30;;;1.43;;
17604;SDS011;8921;50.964;6.800;2022-07-04T15:09:33;3.43;;;1.20;;
17604;SDS011;8921;50.964;6.800;2022-07-04T15:12:02;3.50;;;1.50;;
17604;SDS011;8921;50.964;6.800;2022-07-04T15:14:30;5.17;;;1.83;;
17604;SDS011;8921;50.964;6.800;2022-07-04T15:16:58;6.27;;;1.37;;
17604;SDS011;8921;50.964;6.800;2022-07-04T15:19:27;5.33;;;1.20;;
17604;SDS011;8921;50.964;6.800;2022-07-04T15:21:55;3.63;;;1.43;;
17604;SDS011;8921;50.964;6.800;2022-07-04T15:24:42;4.80;;;2.03;;
17604;SDS011;8921;50.964;6.800;2022-07-04T15:27:10;4.10;;;1.23;;
17604;SDS011;8921;50.964;6.800;2022-07-04T15:29:38;3.83;;;1.57;;
17604;SDS011;8921;50.964;6.800;2022-07-04T15:32:07;8.10;;;1.30;;
17604;SDS011;8921;50.964;6.800;2022-07-04T15:34:35;3.10;;;1.30;;
17604;SDS011;8921;50.964;6.800;2022-07-04T15:37:03;4.17;;;1.60;;
17604;SDS011;8921;50.964;6.800;2022-07-04T15:39:32;3.47;;;1.33;;
17604;SDS011;8921;50.964;6.800;2022-07-04T15:42:00;5.80;;;1.47;;
17604;SDS011;8921;50.964;6.800;2022-07-04T15:44:28;4.30;;;1.20;;
17604;SDS011;8921;50.964;6.800;2022-07-04T15:46:56;4.00;;;1.30;;
17604;SDS011;8921;50.964;6.800;2022-07-04T15:49:34;4.70;;;1.40;;
17604;SDS011;8921;50.964;6.800;2022-07-04T15:52:05;3.40;;;1.50;;
17604;SDS011;8921;50.964;6.800;2022-07-04T15:54:30;3.60;;;1.50;;
17604;SDS011;8921;50.964;6.800;2022-07-04T15:56:58;3.83;;;1.50;;
17604;SDS011;8921;50.964;6.800;2022-07-04T15:59:27;7.00;;;1.50;;